sensor_id;sensor_type;location;lat;lon;timestamp;P1;durP1;ratioP1;P2;durP2;ratioP2
74213;SDS011;62576;55.694;37.494;2023-06-04T00:01:55;7.18;;;2.10;;
74213;SDS011;62576;55.694;37.494;2023-06-04T00:04:27;15.27;;;2.70;;
74213;SDS011;62576;55.694;37.494;2023-06-04T00:06:58;4.88;;;2.22;;
74213;SDS011;62576;55.694;37.494;2023-06-04T00:09:28;8.07;;;2.70;;
74213;SDS011;62576;55.694;37.494;2023-06-04T00:11:58;7.88;;;3.08;;
74213;SDS011;62576;55.694;37.494;2023-06-04T00:14:28;6.63;;;3.10;;
74213;SDS011;62576;55.694;37.494;2023-06-04T00:16:57;9.38;;;3.40;;
74213;SDS011;62576;55.694;37.494;2023-06-04T00:19:29;11.25;;;4.35;;
74213;SDS011;62576;55.694;37.494;2023-06-04T00:21:59;9.07;;;4.53;;
74213;SDS011;62576;55.694;37.494;2023-06-04T00:24:29;16.20;;;5.30;;
74213;SDS011;62576;55.694;37.494;2023-06-04T00:26:59;8.32;;;4.43;;
74213;SDS011;62576;55.694;37.494;2023-06-04T00:29:29;10.88;;;5.70;;
74213;SDS011;62576;55.694;37.494;2023-06-04T00:31:59;8.43;;;4.40;;
74213;SDS011;62576;55.694;37.494;2023-06-04T00:34:31;10.00;;;4.57;;
74213;SDS011;62576;55.694;37.494;2023-06-04T00:37:01;9.27;;;4.20;;
74213;SDS011;62576;55.694;37.494;2023-06-04T00:39:31;11.07;;;3.92;;
74213;SDS011;62576;55.694;37.494;2023-06-04T00:42:02;9.88;;;4.25;;
74213;SDS011;62576;55.694;37.494;2023-06-04T00:44:33;8.55;;;4.05;;
74213;SDS011;62576;55.694;37.494;2023-06-04T00:47:04;7.85;;;3.95;;
74213;SDS011;62576;55.694;37.494;2023-06-04T00:49:36;7.65;;;3.30;;
74213;SDS011;62576;55.694;37.494;2023-06-04T00:52:06;7.50;;;3.55;;
74213;SDS011;62576;55.694;37.494;2023-06-04T00:54:37;8.40;;;4.00;;
74213;SDS011;62576;55.694;37.494;2023-06-04T00:57:07;6.97;;;2.90;;
74213;SDS011;62576;55.694;37.494;2023-06-04T00:59:38;6.40;;;2.83;;
74213;SDS011;62576;55.694;37.494;2023-06-04T01:02:11;4.32;;;2.25;;
74213;SDS011;62576;55.694;37.494;2023-06-04T01:04:46;3.70;;;2.33;;
74213;SDS011;62576;55.694;37.494;2023-06-04T01:07:19;4.72;;;2.55;;
74213;SDS011;62576;55.694;37.494;2023-06-04T01:09:51;5.75;;;2.33;;
74213;SDS011;62576;55.694;37.494;2023-06-04T01:12:21;6.45;;;2.40;;
74213;SDS011;62576;55.694;37.494;2023-06-04T01:14:52;6.68;;;2.20;;
74213;SDS011;62576;55.694;37.494;2023-06-04T01:17:23;9.45;;;2.28;;
74213;SDS011;62576;55.694;37.494;2023-06-04T01:20:13;5.38;;;2.13;;
74213;SDS011;62576;55.694;37.494;2023-06-04T01:22:56;5.65;;;2.17;;
74213;SDS011;62576;55.694;37.494;2023-06-04T01:25:36;6.50;;;2.47;;
74213;SDS011;62576;55.694;37.494;2023-06-04T01:28:09;5.15;;;2.45;;
74213;SDS011;62576;55.694;37.494;2023-06-04T01:30:41;4.85;;;2.30;;
74213;SDS011;62576;55.694;37.494;2023-06-04T01:33:15;6.05;;;2.47;;
74213;SDS011;62576;55.694;37.494;2023-06-04T01:35:48;5.47;;;2.20;;
74213;SDS011;62576;55.694;37.494;2023-06-04T01:38:19;6.25;;;2.70;;
74213;SDS011;62576;55.694;37.494;2023-06-04T01:40:49;5.97;;;2.33;;
74213;SDS011;62576;55.694;37.494;2023-06-04T01:43:24;4.68;;;2.72;;
74213;SDS011;62576;55.694;37.494;2023-06-04T01:45:54;6.47;;;2.60;;
74213;SDS011;62576;55.694;37.494;2023-06-04T01:48:24;6.50;;;2.70;;
74213;SDS011;62576;55.694;37.494;2023-06-04T01:50:56;7.43;;;2.55;;
74213;SDS011;62576;55.694;37.494;2023-06-04T01:53:26;6.93;;;2.58;;
74213;SDS011;62576;55.694;37.494;2023-06-04T01:55:56;7.32;;;2.50;;
74213;SDS011;62576;55.694;37.494;2023-06-04T01:58:27;6.32;;;2.25;;
74213;SDS011;62576;55.694;37.494;2023-06-04T02:00:57;4.00;;;2.10;;
74213;SDS011;62576;55.694;37.494;2023-06-04T02:03:31;4.65;;;2.20;;
74213;SDS011;62576;55.694;37.494;2023-06-04T02:06:06;5.00;;;2.30;;
74213;SDS011;62576;55.694;37.494;2023-06-04T02:08:36;4.65;;;2.25;;
74213;SDS011;62576;55.694;37.494;2023-06-04T02:11:06;4.93;;;2.15;;
74213;SDS011;62576;55.694;37.494;2023-06-04T02:13:36;3.28;;;1.98;;
74213;SDS011;62576;55.694;37.494;2023-06-04T02:16:06;7.13;;;2.10;;
74213;SDS011;62576;55.694;37.494;2023-06-04T02:18:36;3.67;;;2.05;;
74213;SDS011;62576;55.694;37.494;2023-06-04T02:21:08;6.55;;;3.20;;
74213;SDS011;62576;55.694;37.494;2023-06-04T02:23:38;4.90;;;1.90;;
74213;SDS011;62576;55.694;37.494;2023-06-04T02:26:05;5.78;;;2.05;;
74213;SDS011;62576;55.694;37.494;2023-06-04T02:28:35;5.60;;;2.05;;
74213;SDS011;62576;55.694;37.494;2023-06-04T02:31:05;4.18;;;1.90;;
74213;SDS011;62576;55.694;37.494;2023-06-04T02:33:35;4.32;;;1.70;;
74213;SDS011;62576;55.694;37.494;2023-06-04T02:36:06;3.50;;;1.70;;
74213;SDS011;62576;55.694;37.494;2023-06-04T02:38:38;4.82;;;2.17;;
74213;SDS011;62576;55.694;37.494;2023-06-04T02:41:08;5.80;;;1.80;;
74213;SDS011;62576;55.694;37.494;2023-06-04T02:43:38;3.35;;;1.90;;
74213;SDS011;62576;55.694;37.494;2023-06-04T02:46:08;3.40;;;1.88;;
74213;SDS011;62576;55.694;37.494;2023-06-04T02:48:38;3.90;;;1.88;;
74213;SDS011;62576;55.694;37.494;2023-06-04T02:51:09;4.95;;;1.67;;
74213;SDS011;62576;55.694;37.494;2023-06-04T02:53:39;4.53;;;1.90;;
74213;SDS011;62576;55.694;37.494;2023-06-04T02:56:10;5.63;;;1.98;;
74213;SDS011;62576;55.694;37.494;2023-06-04T02:58:48;4.10;;;1.75;;
74213;SDS011;62576;55.694;37.494;2023-06-04T03:01:19;5.45;;;2.00;;
74213;SDS011;62576;55.694;37.494;2023-06-04T03:03:50;6.05;;;2.00;;
74213;SDS011;62576;55.694;37.494;2023-06-04T03:06:21;4.15;;;2.17;;
74213;SDS011;62576;55.694;37.494;2023-06-04T03:08:52;4.15;;;2.95;;
74213;SDS011;62576;55.694;37.494;2023-06-04T03:11:22;5.00;;;2.67;;
74213;SDS011;62576;55.694;37.494;2023-06-04T03:13:53;7.30;;;3.88;;
74213;SDS011;62576;55.694;37.494;2023-06-04T03:16:22;8.68;;;5.05;;
74213;SDS011;62576;55.694;37.494;2023-06-04T03:18:53;8.27;;;4.10;;
74213;SDS011;62576;55.694;37.494;2023-06-04T03:21:25;7.90;;;4.03;;
74213;SDS011;62576;55.694;37.494;2023-06-04T03:23:55;5.38;;;3.05;;
74213;SDS011;62576;55.694;37.494;2023-06-04T03:26:27;8.00;;;3.45;;
74213;SDS011;62576;55.694;37.494;2023-06-04T03:28:58;4.85;;;2.33;;
74213;SDS011;62576;55.694;37.494;2023-06-04T03:31:28;4.35;;;2.45;;
74213;SDS011;62576;55.694;37.494;2023-06-04T03:34:00;5.18;;;2.67;;
74213;SDS011;62576;55.694;37.494;2023-06-04T03:36:32;8.80;;;3.95;;
74213;SDS011;62576;55.694;37.494;2023-06-04T03:39:06;4.05;;;2.40;;
74213;SDS011;62576;55.694;37.494;2023-06-04T03:41:36;4.75;;;2.90;;
74213;SDS011;62576;55.694;37.494;2023-06-04T03:44:06;3.55;;;2.78;;
74213;SDS011;62576;55.694;37.494;2023-06-04T03:46:38;6.72;;;3.30;;
74213;SDS011;62576;55.694;37.494;2023-06-04T03:49:09;7.00;;;2.80;;
74213;SDS011;62576;55.694;37.494;2023-06-04T03:51:41;5.28;;;2.88;;
74213;SDS011;62576;55.694;37.494;2023-06-04T03:54:10;6.18;;;2.80;;
74213;SDS011;62576;55.694;37.494;2023-06-04T03:56:44;5.00;;;3.25;;
74213;SDS011;62576;55.694;37.494;2023-06-04T03:59:15;4.18;;;2.40;;
74213;SDS011;62576;55.694;37.494;2023-06-04T04:01:45;3.55;;;2.25;;
74213;SDS011;62576;55.694;37.494;2023-06-04T04:04:15;3.78;;;2.15;;
74213;SDS011;62576;55.694;37.494;2023-06-04T04:06:47;4.15;;;2.00;;
74213;SDS011;62576;55.694;37.494;2023-06-04T04:09:17;3.25;;;1.95;;
74213;SDS011;62576;55.694;37.494;2023-06-04T04:11:47;3.63;;;1.55;;
74213;SDS011;62576;55.694;37.494;2023-06-04T04:14:17;5.32;;;2.13;;
74213;SDS011;62576;55.694;37.494;2023-06-04T04:16:47;5.85;;;1.90;;
74213;SDS011;62576;55.694;37.494;2023-06-04T04:19:17;5.95;;;2.78;;
74213;SDS011;62576;55.694;37.494;2023-06-04T04:21:48;5.30;;;3.08;;
74213;SDS011;62576;55.694;37.494;2023-06-04T04:24:22;4.68;;;2.55;;
74213;SDS011;62576;55.694;37.494;2023-06-04T04:26:52;7.25;;;2.67;;
74213;SDS011;62576;55.694;37.494;2023-06-04T04:29:23;6.75;;;3.03;;
74213;SDS011;62576;55.694;37.494;2023-06-04T04:31:53;6.38;;;2.80;;
74213;SDS011;62576;55.694;37.494;2023-06-04T04:34:25;6.43;;;2.40;;
74213;SDS011;62576;55.694;37.494;2023-06-04T04:36:57;5.03;;;1.92;;
74213;SDS011;62576;55.694;37.494;2023-06-04T04:39:27;4.72;;;2.60;;
74213;SDS011;62576;55.694;37.494;2023-06-04T04:41:57;5.65;;;2.40;;
74213;SDS011;62576;55.694;37.494;2023-06-04T04:44:27;6.55;;;2.83;;
74213;SDS011;62576;55.694;37.494;2023-06-04T04:46:57;4.35;;;2.70;;
74213;SDS011;62576;55.694;37.494;2023-06-04T04:49:29;4.93;;;2.35;;
74213;SDS011;62576;55.694;37.494;2023-06-04T04:52:01;6.28;;;2.88;;
74213;SDS011;62576;55.694;37.494;2023-06-04T04:54:31;3.22;;;2.08;;
74213;SDS011;62576;55.694;37.494;2023-06-04T04:57:01;4.18;;;2.03;;
74213;SDS011;62576;55.694;37.494;2023-06-04T04:59:31;4.28;;;2.00;;
74213;SDS011;62576;55.694;37.494;2023-06-04T05:02:01;4.10;;;2.40;;
74213;SDS011;62576;55.694;37.494;2023-06-04T05:04:33;7.38;;;2.20;;
74213;SDS011;62576;55.694;37.494;2023-06-04T05:07:05;3.33;;;2.07;;
74213;SDS011;62576;55.694;37.494;2023-06-04T05:09:35;3.75;;;1.90;;
74213;SDS011;62576;55.694;37.494;2023-06-04T05:12:05;5.15;;;2.30;;
74213;SDS011;62576;55.694;37.494;2023-06-04T05:14:36;4.22;;;2.20;;
74213;SDS011;62576;55.694;37.494;2023-06-04T05:17:06;7.60;;;1.77;;
74213;SDS011;62576;55.694;37.494;2023-06-04T05:19:38;4.10;;;1.90;;
74213;SDS011;62576;55.694;37.494;2023-06-04T05:22:10;3.28;;;1.30;;
74213;SDS011;62576;55.694;37.494;2023-06-04T05:24:40;3.42;;;1.65;;
74213;SDS011;62576;55.694;37.494;2023-06-04T05:27:10;2.45;;;1.48;;
74213;SDS011;62576;55.694;37.494;2023-06-04T05:29:40;2.08;;;1.40;;
74213;SDS011;62576;55.694;37.494;2023-06-04T05:32:10;2.75;;;1.40;;
74213;SDS011;62576;55.694;37.494;2023-06-04T05:34:40;3.58;;;1.73;;
74213;SDS011;62576;55.694;37.494;2023-06-04T05:37:13;2.97;;;1.63;;
74213;SDS011;62576;55.694;37.494;2023-06-04T05:39:44;3.85;;;1.50;;
74213;SDS011;62576;55.694;37.494;2023-06-04T05:42:15;8.27;;;4.20;;
74213;SDS011;62576;55.694;37.494;2023-06-04T05:44:47;5.55;;;1.90;;
74213;SDS011;62576;55.694;37.494;2023-06-04T05:47:17;4.18;;;1.70;;
74213;SDS011;62576;55.694;37.494;2023-06-04T05:49:47;3.13;;;1.70;;
74213;SDS011;62576;55.694;37.494;2023-06-04T05:52:21;3.67;;;1.60;;
74213;SDS011;62576;55.694;37.494;2023-06-04T05:54:51;2.35;;;1.45;;
74213;SDS011;62576;55.694;37.494;2023-06-04T05:57:21;2.58;;;1.40;;
74213;SDS011;62576;55.694;37.494;2023-06-04T05:59:51;4.07;;;1.23;;
74213;SDS011;62576;55.694;37.494;2023-06-04T06:02:21;2.85;;;1.30;;
74213;SDS011;62576;55.694;37.494;2023-06-04T06:04:50;2.92;;;1.27;;
74213;SDS011;62576;55.694;37.494;2023-06-04T06:07:23;3.90;;;1.30;;
74213;SDS011;62576;55.694;37.494;2023-06-04T06:09:53;2.08;;;1.30;;
74213;SDS011;62576;55.694;37.494;2023-06-04T06:12:24;5.15;;;1.42;;
74213;SDS011;62576;55.694;37.494;2023-06-04T06:14:53;4.32;;;1.42;;
74213;SDS011;62576;55.694;37.494;2023-06-04T06:17:23;3.40;;;1.50;;
74213;SDS011;62576;55.694;37.494;2023-06-04T06:20:00;2.65;;;1.48;;
74213;SDS011;62576;55.694;37.494;2023-06-04T06:22:35;2.95;;;1.23;;
74213;SDS011;62576;55.694;37.494;2023-06-04T06:25:06;4.85;;;1.40;;
74213;SDS011;62576;55.694;37.494;2023-06-04T06:27:36;4.05;;;1.58;;
74213;SDS011;62576;55.694;37.494;2023-06-04T06:30:07;4.70;;;1.70;;
74213;SDS011;62576;55.694;37.494;2023-06-04T06:32:38;2.13;;;1.30;;
74213;SDS011;62576;55.694;37.494;2023-06-04T06:35:08;3.25;;;1.20;;
74213;SDS011;62576;55.694;37.494;2023-06-04T06:37:46;2.75;;;1.20;;
74213;SDS011;62576;55.694;37.494;2023-06-04T06:40:16;3.70;;;1.20;;
74213;SDS011;62576;55.694;37.494;2023-06-04T06:42:47;3.67;;;1.30;;
74213;SDS011;62576;55.694;37.494;2023-06-04T06:45:19;3.67;;;1.30;;
74213;SDS011;62576;55.694;37.494;2023-06-04T06:47:49;2.30;;;1.35;;
74213;SDS011;62576;55.694;37.494;2023-06-04T06:50:20;1.40;;;1.10;;
74213;SDS011;62576;55.694;37.494;2023-06-04T06:52:51;3.33;;;1.52;;
74213;SDS011;62576;55.694;37.494;2023-06-04T06:55:21;5.43;;;1.10;;
74213;SDS011;62576;55.694;37.494;2023-06-04T06:57:52;3.22;;;1.30;;
74213;SDS011;62576;55.694;37.494;2023-06-04T07:00:22;1.65;;;1.23;;
74213;SDS011;62576;55.694;37.494;2023-06-04T07:02:52;1.10;;;1.00;;
74213;SDS011;62576;55.694;37.494;2023-06-04T07:05:23;3.70;;;1.40;;
74213;SDS011;62576;55.694;37.494;2023-06-04T07:07:54;1.50;;;1.30;;
74213;SDS011;62576;55.694;37.494;2023-06-04T07:10:25;2.90;;;1.50;;
74213;SDS011;62576;55.694;37.494;2023-06-04T07:12:55;4.57;;;1.70;;
74213;SDS011;62576;55.694;37.494;2023-06-04T07:15:25;4.68;;;1.33;;
74213;SDS011;62576;55.694;37.494;2023-06-04T07:17:55;2.60;;;1.10;;
74213;SDS011;62576;55.694;37.494;2023-06-04T07:20:25;4.75;;;1.40;;
74213;SDS011;62576;55.694;37.494;2023-06-04T07:22:57;3.40;;;1.30;;
74213;SDS011;62576;55.694;37.494;2023-06-04T07:25:24;2.58;;;1.40;;
74213;SDS011;62576;55.694;37.494;2023-06-04T07:27:54;2.03;;;1.30;;
74213;SDS011;62576;55.694;37.494;2023-06-04T07:30:26;2.65;;;1.40;;
74213;SDS011;62576;55.694;37.494;2023-06-04T07:32:56;3.90;;;1.40;;
74213;SDS011;62576;55.694;37.494;2023-06-04T07:35:26;4.18;;;1.20;;
74213;SDS011;62576;55.694;37.494;2023-06-04T07:37:57;2.25;;;1.20;;
74213;SDS011;62576;55.694;37.494;2023-06-04T07:40:27;2.53;;;1.50;;
74213;SDS011;62576;55.694;37.494;2023-06-04T07:42:57;6.78;;;1.70;;
74213;SDS011;62576;55.694;37.494;2023-06-04T07:45:27;4.20;;;1.35;;
74213;SDS011;62576;55.694;37.494;2023-06-04T07:48:00;3.00;;;1.23;;
74213;SDS011;62576;55.694;37.494;2023-06-04T07:50:30;4.40;;;1.60;;
74213;SDS011;62576;55.694;37.494;2023-06-04T07:53:02;2.80;;;1.35;;
74213;SDS011;62576;55.694;37.494;2023-06-04T07:55:32;1.45;;;1.20;;
74213;SDS011;62576;55.694;37.494;2023-06-04T07:58:03;4.28;;;1.50;;
74213;SDS011;62576;55.694;37.494;2023-06-04T08:00:33;3.70;;;1.58;;
74213;SDS011;62576;55.694;37.494;2023-06-04T08:03:03;2.33;;;1.35;;
74213;SDS011;62576;55.694;37.494;2023-06-04T08:05:34;2.70;;;1.50;;
74213;SDS011;62576;55.694;37.494;2023-06-04T08:08:07;4.75;;;1.67;;
74213;SDS011;62576;55.694;37.494;2023-06-04T08:10:40;2.97;;;1.50;;
74213;SDS011;62576;55.694;37.494;2023-06-04T08:13:11;3.35;;;1.50;;
74213;SDS011;62576;55.694;37.494;2023-06-04T08:15:41;3.22;;;1.60;;
74213;SDS011;62576;55.694;37.494;2023-06-04T08:18:10;3.20;;;1.60;;
74213;SDS011;62576;55.694;37.494;2023-06-04T08:20:41;2.00;;;1.52;;
74213;SDS011;62576;55.694;37.494;2023-06-04T08:23:12;4.05;;;1.40;;
74213;SDS011;62576;55.694;37.494;2023-06-04T08:25:39;5.43;;;1.50;;
74213;SDS011;62576;55.694;37.494;2023-06-04T08:28:13;5.53;;;1.63;;
74213;SDS011;62576;55.694;37.494;2023-06-04T08:30:43;4.78;;;1.70;;
74213;SDS011;62576;55.694;37.494;2023-06-04T08:33:13;4.68;;;1.88;;
74213;SDS011;62576;55.694;37.494;2023-06-04T08:35:43;3.33;;;1.50;;
74213;SDS011;62576;55.694;37.494;2023-06-04T08:38:14;2.97;;;1.58;;
74213;SDS011;62576;55.694;37.494;2023-06-04T08:40:44;4.55;;;1.70;;
74213;SDS011;62576;55.694;37.494;2023-06-04T08:43:14;3.65;;;1.50;;
74213;SDS011;62576;55.694;37.494;2023-06-04T08:45:44;2.40;;;1.35;;
74213;SDS011;62576;55.694;37.494;2023-06-04T08:48:19;3.10;;;1.33;;
74213;SDS011;62576;55.694;37.494;2023-06-04T08:50:52;3.15;;;1.50;;
74213;SDS011;62576;55.694;37.494;2023-06-04T08:53:26;1.90;;;1.40;;
74213;SDS011;62576;55.694;37.494;2023-06-04T08:55:56;2.63;;;1.65;;
74213;SDS011;62576;55.694;37.494;2023-06-04T08:58:28;3.92;;;1.98;;
74213;SDS011;62576;55.694;37.494;2023-06-04T09:01:01;1.73;;;1.48;;
74213;SDS011;62576;55.694;37.494;2023-06-04T09:03:31;2.75;;;1.70;;
74213;SDS011;62576;55.694;37.494;2023-06-04T09:06:02;2.28;;;1.50;;
74213;SDS011;62576;55.694;37.494;2023-06-04T09:08:37;5.22;;;1.90;;
74213;SDS011;62576;55.694;37.494;2023-06-04T09:11:09;1.83;;;1.40;;
74213;SDS011;62576;55.694;37.494;2023-06-04T09:13:43;4.75;;;1.52;;
74213;SDS011;62576;55.694;37.494;2023-06-04T09:16:19;9.70;;;1.90;;
74213;SDS011;62576;55.694;37.494;2023-06-04T09:18:49;4.50;;;1.80;;
74213;SDS011;62576;55.694;37.494;2023-06-04T09:21:19;2.05;;;1.20;;
74213;SDS011;62576;55.694;37.494;2023-06-04T09:23:48;4.65;;;1.40;;
74213;SDS011;62576;55.694;37.494;2023-06-04T09:26:15;3.22;;;1.50;;
74213;SDS011;62576;55.694;37.494;2023-06-04T09:28:45;2.58;;;1.40;;
74213;SDS011;62576;55.694;37.494;2023-06-04T09:31:16;5.53;;;1.65;;
74213;SDS011;62576;55.694;37.494;2023-06-04T09:33:47;3.45;;;1.65;;
74213;SDS011;62576;55.694;37.494;2023-06-04T09:36:18;5.27;;;1.83;;
74213;SDS011;62576;55.694;37.494;2023-06-04T09:38:51;2.28;;;1.60;;
74213;SDS011;62576;55.694;37.494;2023-06-04T09:41:23;2.35;;;1.70;;
74213;SDS011;62576;55.694;37.494;2023-06-04T09:46:40;7.57;;;1.70;;
74213;SDS011;62576;55.694;37.494;2023-06-04T09:49:10;5.22;;;1.60;;
74213;SDS011;62576;55.694;37.494;2023-06-04T09:51:48;3.10;;;1.50;;
74213;SDS011;62576;55.694;37.494;2023-06-04T09:54:20;4.80;;;1.35;;
74213;SDS011;62576;55.694;37.494;2023-06-04T09:56:50;2.85;;;1.58;;
74213;SDS011;62576;55.694;37.494;2023-06-04T09:59:20;6.45;;;1.60;;
74213;SDS011;62576;55.694;37.494;2023-06-04T10:01:50;2.78;;;1.70;;
74213;SDS011;62576;55.694;37.494;2023-06-04T10:04:21;1.60;;;1.40;;
74213;SDS011;62576;55.694;37.494;2023-06-04T10:06:51;3.22;;;1.70;;
74213;SDS011;62576;55.694;37.494;2023-06-04T10:09:23;10.30;;;5.05;;
74213;SDS011;62576;55.694;37.494;2023-06-04T10:11:55;10.15;;;5.63;;
74213;SDS011;62576;55.694;37.494;2023-06-04T10:14:31;5.60;;;1.65;;
74213;SDS011;62576;55.694;37.494;2023-06-04T10:17:09;9.18;;;1.50;;
74213;SDS011;62576;55.694;37.494;2023-06-04T10:19:42;4.07;;;2.10;;
74213;SDS011;62576;55.694;37.494;2023-06-04T10:22:14;2.55;;;1.52;;
74213;SDS011;62576;55.694;37.494;2023-06-04T10:24:46;2.40;;;1.38;;
74213;SDS011;62576;55.694;37.494;2023-06-04T10:27:16;3.13;;;1.52;;
74213;SDS011;62576;55.694;37.494;2023-06-04T10:29:50;3.88;;;1.48;;
74213;SDS011;62576;55.694;37.494;2023-06-04T10:32:21;1.48;;;1.38;;
74213;SDS011;62576;55.694;37.494;2023-06-04T10:34:52;2.20;;;1.40;;
74213;SDS011;62576;55.694;37.494;2023-06-04T10:37:23;6.70;;;1.77;;
74213;SDS011;62576;55.694;37.494;2023-06-04T10:39:56;3.80;;;1.70;;
74213;SDS011;62576;55.694;37.494;2023-06-04T10:45:07;3.42;;;1.80;;
74213;SDS011;62576;55.694;37.494;2023-06-04T10:47:40;3.35;;;1.70;;
74213;SDS011;62576;55.694;37.494;2023-06-04T10:50:12;2.90;;;1.55;;
74213;SDS011;62576;55.694;37.494;2023-06-04T10:55:32;2.60;;;1.65;;
74213;SDS011;62576;55.694;37.494;2023-06-04T10:58:13;3.45;;;1.52;;
74213;SDS011;62576;55.694;37.494;2023-06-04T11:00:44;6.10;;;2.08;;
74213;SDS011;62576;55.694;37.494;2023-06-04T11:03:17;2.58;;;1.70;;
74213;SDS011;62576;55.694;37.494;2023-06-04T11:05:47;3.45;;;1.90;;
74213;SDS011;62576;55.694;37.494;2023-06-04T11:11:11;2.33;;;1.67;;
74213;SDS011;62576;55.694;37.494;2023-06-04T11:13:42;2.75;;;1.80;;
74213;SDS011;62576;55.694;37.494;2023-06-04T11:16:16;3.60;;;2.05;;
74213;SDS011;62576;55.694;37.494;2023-06-04T11:18:53;3.75;;;2.10;;
74213;SDS011;62576;55.694;37.494;2023-06-04T11:21:25;2.53;;;1.63;;
74213;SDS011;62576;55.694;37.494;2023-06-04T11:23:58;2.45;;;1.58;;
74213;SDS011;62576;55.694;37.494;2023-06-04T11:26:32;5.68;;;1.60;;
74213;SDS011;62576;55.694;37.494;2023-06-04T11:29:05;5.07;;;1.77;;
74213;SDS011;62576;55.694;37.494;2023-06-04T11:31:40;3.75;;;1.77;;
74213;SDS011;62576;55.694;37.494;2023-06-04T11:34:21;3.63;;;1.50;;
74213;SDS011;62576;55.694;37.494;2023-06-04T11:36:51;4.05;;;1.70;;
74213;SDS011;62576;55.694;37.494;2023-06-04T11:39:22;2.00;;;1.60;;
74213;SDS011;62576;55.694;37.494;2023-06-04T11:41:54;3.65;;;1.70;;
74213;SDS011;62576;55.694;37.494;2023-06-04T11:44:25;3.63;;;2.28;;
74213;SDS011;62576;55.694;37.494;2023-06-04T11:46:55;5.75;;;3.00;;
74213;SDS011;62576;55.694;37.494;2023-06-04T11:49:25;6.50;;;2.40;;
74213;SDS011;62576;55.694;37.494;2023-06-04T11:51:54;4.50;;;2.30;;
74213;SDS011;62576;55.694;37.494;2023-06-04T11:54:25;7.28;;;2.80;;
74213;SDS011;62576;55.694;37.494;2023-06-04T11:56:57;6.75;;;2.13;;
74213;SDS011;62576;55.694;37.494;2023-06-04T11:59:27;4.10;;;1.77;;
74213;SDS011;62576;55.694;37.494;2023-06-04T12:01:58;3.92;;;1.98;;
74213;SDS011;62576;55.694;37.494;2023-06-04T12:04:29;2.83;;;1.65;;
74213;SDS011;62576;55.694;37.494;2023-06-04T12:07:01;6.55;;;2.63;;
74213;SDS011;62576;55.694;37.494;2023-06-04T12:09:34;3.25;;;1.88;;
74213;SDS011;62576;55.694;37.494;2023-06-04T12:12:07;3.23;;;1.80;;
74213;SDS011;62576;55.694;37.494;2023-06-04T12:14:37;5.20;;;1.80;;
74213;SDS011;62576;55.694;37.494;2023-06-04T12:17:08;8.13;;;1.80;;
74213;SDS011;62576;55.694;37.494;2023-06-04T12:19:45;4.50;;;2.13;;
74213;SDS011;62576;55.694;37.494;2023-06-04T12:22:17;4.03;;;1.70;;
74213;SDS011;62576;55.694;37.494;2023-06-04T12:24:49;4.20;;;2.70;;
74213;SDS011;62576;55.694;37.494;2023-06-04T12:29:54;2.97;;;1.73;;
74213;SDS011;62576;55.694;37.494;2023-06-04T12:32:25;6.47;;;3.25;;
74213;SDS011;62576;55.694;37.494;2023-06-04T12:34:56;2.92;;;2.00;;
74213;SDS011;62576;55.694;37.494;2023-06-04T12:37:23;4.22;;;2.65;;
74213;SDS011;62576;55.694;37.494;2023-06-04T12:39:55;3.97;;;1.95;;
74213;SDS011;62576;55.694;37.494;2023-06-04T12:42:26;2.50;;;1.60;;
74213;SDS011;62576;55.694;37.494;2023-06-04T12:44:57;5.28;;;2.13;;
74213;SDS011;62576;55.694;37.494;2023-06-04T12:47:27;8.40;;;3.85;;
74213;SDS011;62576;55.694;37.494;2023-06-04T12:49:57;3.80;;;1.80;;
74213;SDS011;62576;55.694;37.494;2023-06-04T12:52:28;5.35;;;2.33;;
74213;SDS011;62576;55.694;37.494;2023-06-04T12:54:58;5.00;;;1.60;;
74213;SDS011;62576;55.694;37.494;2023-06-04T12:57:29;4.07;;;2.00;;
74213;SDS011;62576;55.694;37.494;2023-06-04T13:00:00;4.47;;;1.60;;
74213;SDS011;62576;55.694;37.494;2023-06-04T13:02:33;4.22;;;2.00;;
74213;SDS011;62576;55.694;37.494;2023-06-04T13:05:03;3.38;;;2.08;;
74213;SDS011;62576;55.694;37.494;2023-06-04T13:07:33;2.42;;;1.80;;
74213;SDS011;62576;55.694;37.494;2023-06-04T13:10:03;4.28;;;2.10;;
74213;SDS011;62576;55.694;37.494;2023-06-04T13:12:35;4.53;;;1.90;;
74213;SDS011;62576;55.694;37.494;2023-06-04T13:15:06;5.28;;;2.13;;
74213;SDS011;62576;55.694;37.494;2023-06-04T13:17:36;2.75;;;1.80;;
74213;SDS011;62576;55.694;37.494;2023-06-04T13:20:07;2.28;;;1.70;;
74213;SDS011;62576;55.694;37.494;2023-06-04T13:22:38;7.47;;;3.17;;
74213;SDS011;62576;55.694;37.494;2023-06-04T13:25:08;3.63;;;1.88;;
74213;SDS011;62576;55.694;37.494;2023-06-04T13:27:40;4.40;;;1.70;;
74213;SDS011;62576;55.694;37.494;2023-06-04T13:30:10;6.47;;;1.90;;
74213;SDS011;62576;55.694;37.494;2023-06-04T13:32:41;4.75;;;2.13;;
74213;SDS011;62576;55.694;37.494;2023-06-04T13:35:11;4.32;;;2.10;;
74213;SDS011;62576;55.694;37.494;2023-06-04T13:37:41;8.18;;;2.63;;
74213;SDS011;62576;55.694;37.494;2023-06-04T13:40:11;5.18;;;2.17;;
74213;SDS011;62576;55.694;37.494;2023-06-04T13:42:43;5.13;;;2.50;;
74213;SDS011;62576;55.694;37.494;2023-06-04T13:45:13;8.32;;;4.18;;
74213;SDS011;62576;55.694;37.494;2023-06-04T13:47:44;4.57;;;2.65;;
74213;SDS011;62576;55.694;37.494;2023-06-04T13:50:15;2.58;;;1.83;;
74213;SDS011;62576;55.694;37.494;2023-06-04T13:52:45;2.53;;;1.90;;
74213;SDS011;62576;55.694;37.494;2023-06-04T13:55:15;2.75;;;1.90;;
74213;SDS011;62576;55.694;37.494;2023-06-04T13:57:47;4.18;;;1.77;;
74213;SDS011;62576;55.694;37.494;2023-06-04T14:00:17;5.93;;;1.70;;
74213;SDS011;62576;55.694;37.494;2023-06-04T14:02:48;5.97;;;2.15;;
74213;SDS011;62576;55.694;37.494;2023-06-04T14:05:18;5.55;;;2.45;;
74213;SDS011;62576;55.694;37.494;2023-06-04T14:07:48;3.58;;;2.13;;
74213;SDS011;62576;55.694;37.494;2023-06-04T14:10:18;8.30;;;3.25;;
74213;SDS011;62576;55.694;37.494;2023-06-04T14:12:49;6.43;;;2.25;;
74213;SDS011;62576;55.694;37.494;2023-06-04T14:15:19;3.60;;;1.50;;
74213;SDS011;62576;55.694;37.494;2023-06-04T14:17:49;4.30;;;2.13;;
74213;SDS011;62576;55.694;37.494;2023-06-04T14:20:19;3.75;;;1.88;;
74213;SDS011;62576;55.694;37.494;2023-06-04T14:22:50;2.97;;;1.60;;
74213;SDS011;62576;55.694;37.494;2023-06-04T14:25:19;3.53;;;1.70;;
74213;SDS011;62576;55.694;37.494;2023-06-04T14:27:51;6.22;;;2.50;;
74213;SDS011;62576;55.694;37.494;2023-06-04T14:30:21;5.50;;;2.83;;
74213;SDS011;62576;55.694;37.494;2023-06-04T14:32:51;7.72;;;2.90;;
74213;SDS011;62576;55.694;37.494;2023-06-04T14:35:21;2.72;;;2.00;;
74213;SDS011;62576;55.694;37.494;2023-06-04T14:37:51;4.07;;;2.00;;
74213;SDS011;62576;55.694;37.494;2023-06-04T14:40:21;4.53;;;1.77;;
74213;SDS011;62576;55.694;37.494;2023-06-04T14:42:52;2.45;;;1.60;;
74213;SDS011;62576;55.694;37.494;2023-06-04T14:45:22;3.83;;;1.60;;
74213;SDS011;62576;55.694;37.494;2023-06-04T14:47:52;2.78;;;1.63;;
74213;SDS011;62576;55.694;37.494;2023-06-04T14:50:22;6.22;;;3.38;;
74213;SDS011;62576;55.694;37.494;2023-06-04T14:52:53;6.97;;;2.63;;
74213;SDS011;62576;55.694;37.494;2023-06-04T14:55:23;4.43;;;2.25;;
74213;SDS011;62576;55.694;37.494;2023-06-04T14:57:55;4.03;;;2.10;;
74213;SDS011;62576;55.694;37.494;2023-06-04T15:00:25;2.45;;;1.88;;
74213;SDS011;62576;55.694;37.494;2023-06-04T15:02:55;3.53;;;1.92;;
74213;SDS011;62576;55.694;37.494;2023-06-04T15:05:25;5.63;;;2.78;;
74213;SDS011;62576;55.694;37.494;2023-06-04T15:07:55;6.43;;;1.77;;
74213;SDS011;62576;55.694;37.494;2023-06-04T15:10:25;7.22;;;1.70;;